Flight Track Log - Related Links

Times and Time Zones

All times are in EST time to prevent confusion due to time zone crossing. See the N449ND flight status page for this flight to view local times or setup timezone preferences in your user account.

Time Position Orientation Groundspeed Altitude Reporting Facility
EST Latitude Longitude Course Direction KTS MPH feet Rate Location/Type
Tue 05:35:00 PM 27.4983 -80.3547 152° Southeast 100 115 700  Level Miami Center
Tue 05:36:00 PM 27.4969 -80.3264 93° East 85 98 1,400 600 Climbing Miami Center
Tue 05:37:00 PM 27.4997 -80.2986 84° East 85 98 1,900 550 Climbing Miami Center
Tue 05:38:00 PM 27.5003 -80.2750 88° East 85 98 2,500 600 Climbing Miami Center
Tue 05:39:00 PM 27.4975 -80.3726 152° Southeast  Level Estimated
Tue 05:39:00 PM 27.5031 -80.2469 84° East 85 98 3,100  Level Miami Center
Tue 05:40:00 PM 27.4975 -80.3726 152° Southeast  Level Estimated
Tue 05:40:00 PM 27.5219 -80.2431 10° North 55 63 3,600  Level Miami Center
Tue 05:41:00 PM 27.5339 -80.2644 302° West 68 78 4,000 250 Climbing Miami Center
Tue 05:42:00 PM 27.5478 -80.2883 303° West 92 106 4,100 50 Climbing Miami Center
Tue 05:43:00 PM 27.5619 -80.3097 307° West 97 112 4,100  Level Miami Center
Tue 05:44:00 PM 27.5781 -80.3336 307° West 97 112 4,100  Level Miami Center
Tue 05:45:00 PM 27.5964 -80.3600 308° West 97 112 4,100  Level Miami Center
Tue 05:46:00 PM 27.6081 -80.3861 297° West 97 112 4,100  Level Miami Center
Tue 05:47:00 PM 27.5889 -80.4067 224° Southwest 85 98 4,100  Level Miami Center
Tue 05:48:00 PM 27.5758 -80.4297 237° Southwest 94 108 4,100  Level Miami Center
Tue 05:49:00 PM 27.5667 -80.4550 248° West 100 115 4,100  Level Miami Center
Tue 05:50:00 PM 27.5639 -80.4878 265° West 93 107 4,100  Level Miami Center
Tue 05:51:00 PM 27.5631 -80.5183 268° West 93 107 4,100  Level Miami Center
Tue 05:52:00 PM 27.5728 -80.5444 293° West 98 113 4,100  Level Miami Center
Tue 05:53:00 PM 27.5869 -80.5683 304° West 98 113 4,100 -300 Level Miami Center
Tue 05:54:00 PM 27.6092 -80.5947 314° West 103 119 3,500 -500 Descending Miami Center
Tue 05:55:00 PM 27.6358 -80.6119 330° Northwest 103 119 3,100 -200 Descending Miami Center
Tue 05:56:00 PM 27.6628 -80.6200 345° North 103 119 3,100  Level Miami Center
Tue 05:57:00 PM 27.6900 -80.6208 358° North 103 119 3,100  Level Miami Center
Tue 05:58:00 PM 27.7172 -80.6147 11° North 103 119 3,100 -350 Level Miami Center
Tue 05:59:00 PM 27.7097 -80.5817 104° East 69 79 2,400 -700 Descending Miami Center
Tue 06:00:00 PM 27.7000 -80.5556 113° Southeast 92 106 1,700 -550 Descending Miami Center
Tue 06:01:00 PM 27.6922 -80.5269 107° East 92 106 1,300 -200 Descending Miami Center
Tue 06:02:00 PM 27.6825 -80.5033 115° Southeast 92 106 1,300 -100 Level Miami Center
Tue 06:03:00 PM 27.6728 -80.4750 111° Southeast 97 112 1,100 -300 Descending Miami Center
Tue 06:04:00 PM 27.6650 -80.4511 110° East 92 106 700 -300 Descending Miami Center
Tue 06:05:00 PM 27.6572 -80.4275 110° East 87 100 500 1,150 Descending Miami Center
Tue 06:06:00 PM 27.6494 -80.4061 112° Southeast 87 100 3,000 600 Climbing Miami Center
Tue 06:07:00 PM 27.6481 -80.3781 93° East 82 94 1,700 -450 Descending Miami Center
Tue 06:08:00 PM 27.6425 -80.3472 101° East 89 102 2,100 500 Climbing Miami Center
Tue 06:09:00 PM 27.6431 -80.3192 89° East 89 102 2,700 533 Climbing Miami Center
Tue 06:11:00 PM 27.6892 -80.3136 North 89 102 3,700 467 Climbing Miami Center
Tue 06:12:00 PM 27.7142 -80.3167 354° North 89 102 4,100 200 Climbing Miami Center
Tue 06:13:00 PM 27.7264 -80.3358 306° West 73 84 4,100  Level Miami Center
Tue 06:14:00 PM 27.7133 -80.3589 237° Southwest 73 84 4,100  Level Miami Center
Tue 06:15:00 PM 27.6981 -80.3842 236° Southwest 92 106 4,100  Level Miami Center
Tue 06:16:00 PM 27.6869 -80.4050 239° Southwest 97 112 4,100 50 Level Miami Center
Tue 06:17:00 PM 27.6697 -80.4350 237° Southwest 97 112 4,200  Climbing Miami Center
Tue 06:18:00 PM 27.6564 -80.4603 239° Southwest 97 112 4,100 -45 Descending Miami Center
Tue 06:19:12 PM 27.6433 -80.4881 242° Southwest 97 112 4,100  Level Miami Center
Tue 06:20:12 PM 27.6278 -80.5156 237° Southwest 97 112 4,100  Level Miami Center
Tue 06:21:12 PM 27.6106 -80.5456 237° Southwest 97 112 4,100  Level Miami Center
Tue 06:22:12 PM 27.5953 -80.5708 236° Southwest 97 112 4,100  Level Miami Center
Tue 06:23:12 PM 27.5819 -80.5961 239° Southwest 97 112 4,100  Level Miami Center
Tue 06:24:12 PM 27.5667 -80.6192 233° Southwest 97 112 4,100  Level Miami Center
Tue 06:25:12 PM 27.5725 -80.6428 286° West 78 90 4,100 -150 Level Miami Center
Tue 06:26:12 PM 27.5794 -80.6100 77° East 53 61 3,800 -500 Descending Miami Center
Tue 06:27:12 PM 27.5589 -80.6000 157° South 66 76 3,100 -350 Descending Miami Center
Tue 06:28:12 PM 27.5319 -80.5969 174° South 90 104 3,100  Level Miami Center
Tue 06:29:12 PM 27.5089 -80.5986 184° South 95 109 3,100 -200 Level Miami Center
Tue 06:30:12 PM 27.4992 -80.5747 115° Southeast 84 97 2,700 -550 Descending Miami Center
Tue 06:31:12 PM 27.4981 -80.5372 92° East 99 114 2,000 -400 Descending Miami Center
Tue 06:32:12 PM 27.4986 -80.5069 89° East 104 120 1,900 -50 Descending Miami Center
Tue 06:33:12 PM 27.4994 -80.4789 88° East 104 120 1,900 -200 Level Miami Center
Tue 06:34:12 PM 27.4981 -80.4483 93° East 98 113 1,500 -500 Descending Miami Center
Tue 06:35:12 PM 27.4989 -80.4178 88° East 87 100 900 -550 Descending Miami Center
Tue 06:36:12 PM 27.4994 -80.3944 88° East 80 92 400 -500 Descending Miami Center

Login

Don't have an account? Register now (free) for customized features, flight alerts, and more!